sensor_id;sensor_type;location;lat;lon;timestamp;temperature;humidity
30288;DHT22;17103;48.316;11.558;2024-03-07T00:00:05;10.40;54.50
30288;DHT22;17103;48.316;11.558;2024-03-07T00:02:48;10.40;54.20
30288;DHT22;17103;48.316;11.558;2024-03-07T00:05:15;10.30;54.10
30288;DHT22;17103;48.316;11.558;2024-03-07T00:07:41;10.30;54.30
30288;DHT22;17103;48.316;11.558;2024-03-07T00:10:09;10.30;54.20
30288;DHT22;17103;48.316;11.558;2024-03-07T00:12:36;10.30;54.10
30288;DHT22;17103;48.316;11.558;2024-03-07T00:15:06;10.30;54.00
30288;DHT22;17103;48.316;11.558;2024-03-07T00:17:32;10.30;53.90
30288;DHT22;17103;48.316;11.558;2024-03-07T00:19:58;10.60;54.10
30288;DHT22;17103;48.316;11.558;2024-03-07T00:22:24;10.20;53.80
30288;DHT22;17103;48.316;11.558;2024-03-07T00:24:53;10.00;53.60
30288;DHT22;17103;48.316;11.558;2024-03-07T00:27:27;10.10;53.80
30288;DHT22;17103;48.316;11.558;2024-03-07T00:30:04;10.00;53.90
30288;DHT22;17103;48.316;11.558;2024-03-07T00:32:37;9.90;54.80
30288;DHT22;17103;48.316;11.558;2024-03-07T00:35:16;9.90;55.00
30288;DHT22;17103;48.316;11.558;2024-03-07T00:37:42;9.80;55.10
30288;DHT22;17103;48.316;11.558;2024-03-07T00:40:09;9.80;55.20
30288;DHT22;17103;48.316;11.558;2024-03-07T00:42:47;9.70;55.30
30288;DHT22;17103;48.316;11.558;2024-03-07T00:45:16;9.70;55.60
30288;DHT22;17103;48.316;11.558;2024-03-07T00:47:55;9.70;55.70
30288;DHT22;17103;48.316;11.558;2024-03-07T00:50:35;9.60;55.70
30288;DHT22;17103;48.316;11.558;2024-03-07T00:53:09;9.60;55.80
30288;DHT22;17103;48.316;11.558;2024-03-07T00:55:39;9.60;56.20
30288;DHT22;17103;48.316;11.558;2024-03-07T00:58:13;9.60;56.60
30288;DHT22;17103;48.316;11.558;2024-03-07T01:00:44;9.60;56.30
30288;DHT22;17103;48.316;11.558;2024-03-07T01:03:21;9.60;56.00
30288;DHT22;17103;48.316;11.558;2024-03-07T01:06:02;9.70;56.30
30288;DHT22;17103;48.316;11.558;2024-03-07T01:08:33;9.70;56.50
30288;DHT22;17103;48.316;11.558;2024-03-07T01:11:07;9.80;56.80
30288;DHT22;17103;48.316;11.558;2024-03-07T01:13:38;9.90;56.70
30288;DHT22;17103;48.316;11.558;2024-03-07T01:16:10;10.00;55.70
30288;DHT22;17103;48.316;11.558;2024-03-07T01:18:38;10.10;55.20
30288;DHT22;17103;48.316;11.558;2024-03-07T01:21:07;10.10;55.00
30288;DHT22;17103;48.316;11.558;2024-03-07T01:23:37;10.20;54.80
30288;DHT22;17103;48.316;11.558;2024-03-07T01:26:03;10.30;54.50
30288;DHT22;17103;48.316;11.558;2024-03-07T01:28:38;10.30;54.30
30288;DHT22;17103;48.316;11.558;2024-03-07T01:31:10;10.30;54.30
30288;DHT22;17103;48.316;11.558;2024-03-07T01:33:43;10.40;54.40
30288;DHT22;17103;48.316;11.558;2024-03-07T01:36:15;10.40;54.30
30288;DHT22;17103;48.316;11.558;2024-03-07T01:38:44;10.50;54.30
30288;DHT22;17103;48.316;11.558;2024-03-07T01:41:10;10.50;54.00
30288;DHT22;17103;48.316;11.558;2024-03-07T01:43:44;10.60;53.90
30288;DHT22;17103;48.316;11.558;2024-03-07T01:46:25;10.60;53.30
30288;DHT22;17103;48.316;11.558;2024-03-07T01:48:57;10.70;52.60
30288;DHT22;17103;48.316;11.558;2024-03-07T01:51:26;10.70;52.60
30288;DHT22;17103;48.316;11.558;2024-03-07T01:53:56;10.70;52.60
30288;DHT22;17103;48.316;11.558;2024-03-07T01:56:27;10.70;52.20
30288;DHT22;17103;48.316;11.558;2024-03-07T01:58:55;10.70;52.10
30288;DHT22;17103;48.316;11.558;2024-03-07T02:01:21;10.70;52.00
30288;DHT22;17103;48.316;11.558;2024-03-07T02:03:46;10.70;51.90
30288;DHT22;17103;48.316;11.558;2024-03-07T02:06:12;10.70;51.80
30288;DHT22;17103;48.316;11.558;2024-03-07T02:08:39;11.00;51.80
30288;DHT22;17103;48.316;11.558;2024-03-07T02:11:04;10.70;51.30
30288;DHT22;17103;48.316;11.558;2024-03-07T02:13:30;10.80;51.30
30288;DHT22;17103;48.316;11.558;2024-03-07T02:15:57;10.60;51.10
30288;DHT22;17103;48.316;11.558;2024-03-07T02:18:24;10.60;51.10
30288;DHT22;17103;48.316;11.558;2024-03-07T02:20:49;10.50;51.20
30288;DHT22;17103;48.316;11.558;2024-03-07T02:23:15;10.50;51.50
30288;DHT22;17103;48.316;11.558;2024-03-07T02:25:41;10.40;51.40
30288;DHT22;17103;48.316;11.558;2024-03-07T02:28:07;10.40;51.50
30288;DHT22;17103;48.316;11.558;2024-03-07T02:30:33;10.50;51.70
30288;DHT22;17103;48.316;11.558;2024-03-07T02:32:59;10.40;51.70
30288;DHT22;17103;48.316;11.558;2024-03-07T02:35:35;10.30;51.80
30288;DHT22;17103;48.316;11.558;2024-03-07T02:38:04;10.30;51.70
30288;DHT22;17103;48.316;11.558;2024-03-07T02:40:31;10.30;51.70
30288;DHT22;17103;48.316;11.558;2024-03-07T02:42:56;10.40;52.00
30288;DHT22;17103;48.316;11.558;2024-03-07T02:45:23;10.40;52.20
30288;DHT22;17103;48.316;11.558;2024-03-07T02:47:48;10.40;52.00
30288;DHT22;17103;48.316;11.558;2024-03-07T02:50:14;10.40;52.10
30288;DHT22;17103;48.316;11.558;2024-03-07T02:52:40;10.50;52.00
30288;DHT22;17103;48.316;11.558;2024-03-07T02:55:06;10.50;51.90
30288;DHT22;17103;48.316;11.558;2024-03-07T02:57:36;10.60;51.90
30288;DHT22;17103;48.316;11.558;2024-03-07T03:00:02;10.60;51.90
30288;DHT22;17103;48.316;11.558;2024-03-07T03:02:28;10.60;51.70
30288;DHT22;17103;48.316;11.558;2024-03-07T03:04:54;10.70;51.30
30288;DHT22;17103;48.316;11.558;2024-03-07T03:07:20;10.70;51.00
30288;DHT22;17103;48.316;11.558;2024-03-07T03:09:46;10.80;50.60
30288;DHT22;17103;48.316;11.558;2024-03-07T03:12:12;10.80;50.70
30288;DHT22;17103;48.316;11.558;2024-03-07T03:14:38;10.70;50.50
30288;DHT22;17103;48.316;11.558;2024-03-07T03:17:04;10.80;50.80
30288;DHT22;17103;48.316;11.558;2024-03-07T03:19:30;10.80;50.60
30288;DHT22;17103;48.316;11.558;2024-03-07T03:21:55;11.20;50.60
30288;DHT22;17103;48.316;11.558;2024-03-07T03:24:21;10.80;50.40
30288;DHT22;17103;48.316;11.558;2024-03-07T03:26:47;10.80;50.20
30288;DHT22;17103;48.316;11.558;2024-03-07T03:29:13;10.80;49.90
30288;DHT22;17103;48.316;11.558;2024-03-07T03:31:39;10.70;49.30
30288;DHT22;17103;48.316;11.558;2024-03-07T03:34:05;10.70;49.50
30288;DHT22;17103;48.316;11.558;2024-03-07T03:36:31;10.70;49.20
30288;DHT22;17103;48.316;11.558;2024-03-07T03:38:57;10.70;49.10
30288;DHT22;17103;48.316;11.558;2024-03-07T03:41:23;10.60;48.80
30288;DHT22;17103;48.316;11.558;2024-03-07T03:43:48;10.60;48.90
30288;DHT22;17103;48.316;11.558;2024-03-07T03:46:14;10.60;48.80
30288;DHT22;17103;48.316;11.558;2024-03-07T03:48:40;10.60;48.80
30288;DHT22;17103;48.316;11.558;2024-03-07T03:51:09;10.80;49.10
30288;DHT22;17103;48.316;11.558;2024-03-07T03:53:36;10.60;48.80
30288;DHT22;17103;48.316;11.558;2024-03-07T03:56:02;10.60;48.30
30288;DHT22;17103;48.316;11.558;2024-03-07T03:58:30;10.50;48.00
30288;DHT22;17103;48.316;11.558;2024-03-07T04:00:56;10.50;48.20
30288;DHT22;17103;48.316;11.558;2024-03-07T04:03:24;10.50;48.40
30288;DHT22;17103;48.316;11.558;2024-03-07T04:05:49;10.50;48.40
30288;DHT22;17103;48.316;11.558;2024-03-07T04:08:15;10.50;48.30
30288;DHT22;17103;48.316;11.558;2024-03-07T04:10:40;10.70;48.30
30288;DHT22;17103;48.316;11.558;2024-03-07T04:13:06;10.50;47.90
30288;DHT22;17103;48.316;11.558;2024-03-07T04:15:33;10.50;47.90
30288;DHT22;17103;48.316;11.558;2024-03-07T04:17:59;10.60;47.90
30288;DHT22;17103;48.316;11.558;2024-03-07T04:20:24;10.50;47.90
30288;DHT22;17103;48.316;11.558;2024-03-07T04:22:50;10.40;47.90
30288;DHT22;17103;48.316;11.558;2024-03-07T04:25:16;10.50;47.90
30288;DHT22;17103;48.316;11.558;2024-03-07T04:27:42;10.50;47.60
30288;DHT22;17103;48.316;11.558;2024-03-07T04:30:08;10.50;47.50
30288;DHT22;17103;48.316;11.558;2024-03-07T04:32:36;10.50;47.10
30288;DHT22;17103;48.316;11.558;2024-03-07T04:35:06;10.50;47.00
30288;DHT22;17103;48.316;11.558;2024-03-07T04:37:36;10.40;46.80
30288;DHT22;17103;48.316;11.558;2024-03-07T04:40:06;10.40;46.10
30288;DHT22;17103;48.316;11.558;2024-03-07T04:42:47;10.30;46.10
30288;DHT22;17103;48.316;11.558;2024-03-07T04:45:16;10.30;46.40
30288;DHT22;17103;48.316;11.558;2024-03-07T04:47:43;10.20;46.50
30288;DHT22;17103;48.316;11.558;2024-03-07T04:50:13;10.20;46.70
30288;DHT22;17103;48.316;11.558;2024-03-07T04:52:42;10.10;46.70
30288;DHT22;17103;48.316;11.558;2024-03-07T04:55:09;10.10;46.40
30288;DHT22;17103;48.316;11.558;2024-03-07T04:57:36;10.10;46.20
30288;DHT22;17103;48.316;11.558;2024-03-07T05:00:07;10.20;46.40
30288;DHT22;17103;48.316;11.558;2024-03-07T05:02:39;10.00;46.20
30288;DHT22;17103;48.316;11.558;2024-03-07T05:05:04;10.00;46.70
30288;DHT22;17103;48.316;11.558;2024-03-07T05:07:30;10.00;47.10
30288;DHT22;17103;48.316;11.558;2024-03-07T05:09:56;10.00;46.90
30288;DHT22;17103;48.316;11.558;2024-03-07T05:12:22;10.00;46.60
30288;DHT22;17103;48.316;11.558;2024-03-07T05:14:47;10.00;46.80
30288;DHT22;17103;48.316;11.558;2024-03-07T05:17:13;10.00;47.00
30288;DHT22;17103;48.316;11.558;2024-03-07T05:19:38;10.00;47.10
30288;DHT22;17103;48.316;11.558;2024-03-07T05:22:04;10.00;47.10
30288;DHT22;17103;48.316;11.558;2024-03-07T05:24:31;10.00;47.10
30288;DHT22;17103;48.316;11.558;2024-03-07T05:26:58;10.10;47.00
30288;DHT22;17103;48.316;11.558;2024-03-07T05:29:24;10.10;47.00
30288;DHT22;17103;48.316;11.558;2024-03-07T05:31:49;10.10;47.00
30288;DHT22;17103;48.316;11.558;2024-03-07T05:34:16;10.20;47.00
30288;DHT22;17103;48.316;11.558;2024-03-07T05:36:45;10.20;46.70
30288;DHT22;17103;48.316;11.558;2024-03-07T05:39:12;10.20;46.60
30288;DHT22;17103;48.316;11.558;2024-03-07T05:41:42;10.20;46.70
30288;DHT22;17103;48.316;11.558;2024-03-07T05:44:08;10.30;46.70
30288;DHT22;17103;48.316;11.558;2024-03-07T05:46:41;10.30;46.60
30288;DHT22;17103;48.316;11.558;2024-03-07T05:49:08;10.30;46.50
30288;DHT22;17103;48.316;11.558;2024-03-07T05:51:34;10.30;46.40
30288;DHT22;17103;48.316;11.558;2024-03-07T05:54:00;10.40;46.20
30288;DHT22;17103;48.316;11.558;2024-03-07T05:56:26;10.40;46.30
30288;DHT22;17103;48.316;11.558;2024-03-07T05:58:52;10.40;46.30
30288;DHT22;17103;48.316;11.558;2024-03-07T06:01:18;10.40;46.40
30288;DHT22;17103;48.316;11.558;2024-03-07T06:03:44;10.40;46.40
30288;DHT22;17103;48.316;11.558;2024-03-07T06:06:11;10.50;46.40
30288;DHT22;17103;48.316;11.558;2024-03-07T06:08:37;10.40;46.20
30288;DHT22;17103;48.316;11.558;2024-03-07T06:11:05;10.40;46.20
30288;DHT22;17103;48.316;11.558;2024-03-07T06:13:31;10.80;46.40
30288;DHT22;17103;48.316;11.558;2024-03-07T06:15:57;10.40;46.00
30288;DHT22;17103;48.316;11.558;2024-03-07T06:18:22;10.40;46.00
30288;DHT22;17103;48.316;11.558;2024-03-07T06:20:48;10.40;45.70
30288;DHT22;17103;48.316;11.558;2024-03-07T06:23:13;10.40;45.80
30288;DHT22;17103;48.316;11.558;2024-03-07T06:25:41;10.40;45.80
30288;DHT22;17103;48.316;11.558;2024-03-07T06:28:16;10.40;45.80
30288;DHT22;17103;48.316;11.558;2024-03-07T06:30:44;10.40;45.90
30288;DHT22;17103;48.316;11.558;2024-03-07T06:33:11;10.40;45.80
30288;DHT22;17103;48.316;11.558;2024-03-07T06:35:37;10.40;45.70
30288;DHT22;17103;48.316;11.558;2024-03-07T06:38:10;10.40;45.60
30288;DHT22;17103;48.316;11.558;2024-03-07T06:40:40;10.40;45.80
30288;DHT22;17103;48.316;11.558;2024-03-07T06:43:07;10.40;45.80
30288;DHT22;17103;48.316;11.558;2024-03-07T06:45:33;10.40;45.60
30288;DHT22;17103;48.316;11.558;2024-03-07T06:47:59;10.40;45.80
30288;DHT22;17103;48.316;11.558;2024-03-07T06:50:35;10.40;45.70
30288;DHT22;17103;48.316;11.558;2024-03-07T06:53:03;10.40;45.60
30288;DHT22;17103;48.316;11.558;2024-03-07T06:55:29;10.30;45.20
30288;DHT22;17103;48.316;11.558;2024-03-07T06:57:55;10.40;45.00
30288;DHT22;17103;48.316;11.558;2024-03-07T07:00:20;10.30;44.40
30288;DHT22;17103;48.316;11.558;2024-03-07T07:02:47;10.40;44.10
30288;DHT22;17103;48.316;11.558;2024-03-07T07:05:13;10.10;43.90
30288;DHT22;17103;48.316;11.558;2024-03-07T07:07:44;10.00;43.80
30288;DHT22;17103;48.316;11.558;2024-03-07T07:10:11;9.80;44.70
30288;DHT22;17103;48.316;11.558;2024-03-07T07:12:42;9.70;44.80
30288;DHT22;17103;48.316;11.558;2024-03-07T07:15:10;9.50;44.70
30288;DHT22;17103;48.316;11.558;2024-03-07T07:17:36;9.40;44.80
30288;DHT22;17103;48.316;11.558;2024-03-07T07:20:04;10.00;44.60
30288;DHT22;17103;48.316;11.558;2024-03-07T07:22:38;9.10;45.00
30288;DHT22;17103;48.316;11.558;2024-03-07T07:25:05;9.10;45.50
30288;DHT22;17103;48.316;11.558;2024-03-07T07:27:34;8.90;45.60
30288;DHT22;17103;48.316;11.558;2024-03-07T07:29:59;8.70;45.60
30288;DHT22;17103;48.316;11.558;2024-03-07T07:32:25;8.60;45.80
30288;DHT22;17103;48.316;11.558;2024-03-07T07:34:53;8.50;46.10
30288;DHT22;17103;48.316;11.558;2024-03-07T07:37:19;8.40;46.30
30288;DHT22;17103;48.316;11.558;2024-03-07T07:39:45;8.30;46.40
30288;DHT22;17103;48.316;11.558;2024-03-07T07:42:11;8.20;46.60
30288;DHT22;17103;48.316;11.558;2024-03-07T07:44:37;8.20;46.90
30288;DHT22;17103;48.316;11.558;2024-03-07T07:47:03;8.20;47.20
30288;DHT22;17103;48.316;11.558;2024-03-07T07:49:28;8.10;47.30
30288;DHT22;17103;48.316;11.558;2024-03-07T07:51:54;8.10;47.40
30288;DHT22;17103;48.316;11.558;2024-03-07T07:54:20;8.50;47.70
30288;DHT22;17103;48.316;11.558;2024-03-07T07:56:46;8.10;47.60
30288;DHT22;17103;48.316;11.558;2024-03-07T07:59:13;8.10;47.80
30288;DHT22;17103;48.316;11.558;2024-03-07T08:01:39;8.10;47.80
30288;DHT22;17103;48.316;11.558;2024-03-07T08:04:05;8.10;47.80
30288;DHT22;17103;48.316;11.558;2024-03-07T08:06:31;8.10;48.00
30288;DHT22;17103;48.316;11.558;2024-03-07T08:08:56;8.10;48.10
30288;DHT22;17103;48.316;11.558;2024-03-07T08:11:22;8.20;48.30
30288;DHT22;17103;48.316;11.558;2024-03-07T08:13:47;8.20;48.40
30288;DHT22;17103;48.316;11.558;2024-03-07T08:16:16;8.30;48.60
30288;DHT22;17103;48.316;11.558;2024-03-07T08:18:42;8.30;48.60
30288;DHT22;17103;48.316;11.558;2024-03-07T08:21:07;8.40;48.50
30288;DHT22;17103;48.316;11.558;2024-03-07T08:23:37;8.90;48.60
30288;DHT22;17103;48.316;11.558;2024-03-07T08:26:03;8.50;48.30
30288;DHT22;17103;48.316;11.558;2024-03-07T08:28:28;8.50;48.60
30288;DHT22;17103;48.316;11.558;2024-03-07T08:30:54;8.60;49.00
30288;DHT22;17103;48.316;11.558;2024-03-07T08:33:20;8.60;49.10
30288;DHT22;17103;48.316;11.558;2024-03-07T08:35:47;8.70;49.20
30288;DHT22;17103;48.316;11.558;2024-03-07T08:38:13;8.80;49.30
30288;DHT22;17103;48.316;11.558;2024-03-07T08:40:39;8.90;49.40
30288;DHT22;17103;48.316;11.558;2024-03-07T08:43:05;9.00;49.40
30288;DHT22;17103;48.316;11.558;2024-03-07T08:45:32;9.10;49.50
30288;DHT22;17103;48.316;11.558;2024-03-07T08:48:02;9.20;49.60
30288;DHT22;17103;48.316;11.558;2024-03-07T08:50:29;9.30;49.70
30288;DHT22;17103;48.316;11.558;2024-03-07T08:52:55;9.30;49.40
30288;DHT22;17103;48.316;11.558;2024-03-07T08:55:25;9.50;49.40
30288;DHT22;17103;48.316;11.558;2024-03-07T08:57:51;10.20;48.80
30288;DHT22;17103;48.316;11.558;2024-03-07T09:00:19;9.70;49.20
30288;DHT22;17103;48.316;11.558;2024-03-07T09:02:56;9.80;49.30
30288;DHT22;17103;48.316;11.558;2024-03-07T09:05:25;9.80;49.00
30288;DHT22;17103;48.316;11.558;2024-03-07T09:07:52;9.90;49.00
30288;DHT22;17103;48.316;11.558;2024-03-07T09:10:19;10.10;48.20
30288;DHT22;17103;48.316;11.558;2024-03-07T09:12:45;10.20;48.20
30288;DHT22;17103;48.316;11.558;2024-03-07T09:15:11;10.30;48.00
30288;DHT22;17103;48.316;11.558;2024-03-07T09:17:38;10.30;47.80
30288;DHT22;17103;48.316;11.558;2024-03-07T09:20:07;10.40;47.60
30288;DHT22;17103;48.316;11.558;2024-03-07T09:22:34;10.50;47.40
30288;DHT22;17103;48.316;11.558;2024-03-07T09:25:01;10.60;47.40
30288;DHT22;17103;48.316;11.558;2024-03-07T09:27:26;10.60;47.20
30288;DHT22;17103;48.316;11.558;2024-03-07T09:29:52;10.70;47.20
30288;DHT22;17103;48.316;11.558;2024-03-07T09:32:18;10.80;47.10
30288;DHT22;17103;48.316;11.558;2024-03-07T09:34:44;10.80;47.10
30288;DHT22;17103;48.316;11.558;2024-03-07T09:37:09;10.90;47.30
30288;DHT22;17103;48.316;11.558;2024-03-07T09:39:36;11.10;47.50
30288;DHT22;17103;48.316;11.558;2024-03-07T09:42:02;11.10;47.40
30288;DHT22;17103;48.316;11.558;2024-03-07T09:44:28;11.10;47.10
30288;DHT22;17103;48.316;11.558;2024-03-07T09:46:57;11.20;47.00
30288;DHT22;17103;48.316;11.558;2024-03-07T09:49:25;11.30;46.80
30288;DHT22;17103;48.316;11.558;2024-03-07T09:51:55;11.30;46.70
30288;DHT22;17103;48.316;11.558;2024-03-07T09:54:26;11.40;47.00
30288;DHT22;17103;48.316;11.558;2024-03-07T09:56:53;11.50;47.00
30288;DHT22;17103;48.316;11.558;2024-03-07T09:59:20;11.60;47.10
30288;DHT22;17103;48.316;11.558;2024-03-07T10:01:56;11.60;46.80
30288;DHT22;17103;48.316;11.558;2024-03-07T10:04:30;11.30;46.30
30288;DHT22;17103;48.316;11.558;2024-03-07T10:06:57;11.70;46.40
30288;DHT22;17103;48.316;11.558;2024-03-07T10:09:24;11.80;46.80
30288;DHT22;17103;48.316;11.558;2024-03-07T10:11:57;11.80;46.80
30288;DHT22;17103;48.316;11.558;2024-03-07T10:14:24;12.00;46.80
30288;DHT22;17103;48.316;11.558;2024-03-07T10:16:53;12.00;46.80
30288;DHT22;17103;48.316;11.558;2024-03-07T10:19:19;12.00;46.90
30288;DHT22;17103;48.316;11.558;2024-03-07T10:21:44;12.10;46.90
30288;DHT22;17103;48.316;11.558;2024-03-07T10:24:10;12.20;46.80
30288;DHT22;17103;48.316;11.558;2024-03-07T10:26:40;12.30;46.70
30288;DHT22;17103;48.316;11.558;2024-03-07T10:29:07;12.30;46.30
30288;DHT22;17103;48.316;11.558;2024-03-07T10:31:35;12.40;46.20
30288;DHT22;17103;48.316;11.558;2024-03-07T10:34:04;12.40;46.30
30288;DHT22;17103;48.316;11.558;2024-03-07T10:36:31;12.90;46.60
30288;DHT22;17103;48.316;11.558;2024-03-07T10:39:01;12.50;46.30
30288;DHT22;17103;48.316;11.558;2024-03-07T10:41:49;12.80;46.40
30288;DHT22;17103;48.316;11.558;2024-03-07T10:44:25;12.60;45.50
30288;DHT22;17103;48.316;11.558;2024-03-07T10:46:54;12.60;45.50
30288;DHT22;17103;48.316;11.558;2024-03-07T10:49:20;12.70;46.00
30288;DHT22;17103;48.316;11.558;2024-03-07T10:52:10;12.70;45.60
30288;DHT22;17103;48.316;11.558;2024-03-07T10:57:20;12.80;44.90
30288;DHT22;17103;48.316;11.558;2024-03-07T10:59:57;12.80;44.90
30288;DHT22;17103;48.316;11.558;2024-03-07T11:04:58;12.80;44.40
30288;DHT22;17103;48.316;11.558;2024-03-07T11:07:25;12.80;45.00
30288;DHT22;17103;48.316;11.558;2024-03-07T11:09:53;12.80;45.00
30288;DHT22;17103;48.316;11.558;2024-03-07T11:12:24;12.90;45.00
30288;DHT22;17103;48.316;11.558;2024-03-07T11:14:53;12.90;44.50
30288;DHT22;17103;48.316;11.558;2024-03-07T11:17:21;12.90;44.70
30288;DHT22;17103;48.316;11.558;2024-03-07T11:19:47;13.60;45.20
30288;DHT22;17103;48.316;11.558;2024-03-07T11:22:31;13.00;44.80
30288;DHT22;17103;48.316;11.558;2024-03-07T11:25:07;13.00;44.80
30288;DHT22;17103;48.316;11.558;2024-03-07T11:27:36;13.00;44.40
30288;DHT22;17103;48.316;11.558;2024-03-07T11:30:05;13.00;44.30
30288;DHT22;17103;48.316;11.558;2024-03-07T11:32:39;13.00;44.60
30288;DHT22;17103;48.316;11.558;2024-03-07T11:35:11;13.00;44.20
30288;DHT22;17103;48.316;11.558;2024-03-07T11:37:40;13.00;44.00
30288;DHT22;17103;48.316;11.558;2024-03-07T11:42:47;13.00;44.10
30288;DHT22;17103;48.316;11.558;2024-03-07T11:45:14;13.00;44.10
30288;DHT22;17103;48.316;11.558;2024-03-07T11:47:58;13.00;44.20
30288;DHT22;17103;48.316;11.558;2024-03-07T11:50:40;12.60;43.90
30288;DHT22;17103;48.316;11.558;2024-03-07T11:53:12;13.00;43.90
30288;DHT22;17103;48.316;11.558;2024-03-07T11:55:39;12.90;43.80
30288;DHT22;17103;48.316;11.558;2024-03-07T11:58:14;13.70;44.50
30288;DHT22;17103;48.316;11.558;2024-03-07T12:00:45;12.90;43.80
30288;DHT22;17103;48.316;11.558;2024-03-07T12:03:12;12.90;43.70
30288;DHT22;17103;48.316;11.558;2024-03-07T12:05:39;12.90;43.90
30288;DHT22;17103;48.316;11.558;2024-03-07T12:08:06;13.00;43.70
30288;DHT22;17103;48.316;11.558;2024-03-07T12:10:32;12.90;43.80
30288;DHT22;17103;48.316;11.558;2024-03-07T12:12:59;12.90;43.80
30288;DHT22;17103;48.316;11.558;2024-03-07T12:15:26;12.90;43.90
30288;DHT22;17103;48.316;11.558;2024-03-07T12:17:52;12.90;44.00
30288;DHT22;17103;48.316;11.558;2024-03-07T12:20:19;13.00;44.10
30288;DHT22;17103;48.316;11.558;2024-03-07T12:22:56;12.90;44.00
30288;DHT22;17103;48.316;11.558;2024-03-07T12:25:22;13.00;44.30
30288;DHT22;17103;48.316;11.558;2024-03-07T12:28:05;13.00;44.20
30288;DHT22;17103;48.316;11.558;2024-03-07T12:30:56;13.00;43.80
30288;DHT22;17103;48.316;11.558;2024-03-07T12:33:23;13.00;43.90
30288;DHT22;17103;48.316;11.558;2024-03-07T12:35:52;13.20;44.00
30288;DHT22;17103;48.316;11.558;2024-03-07T12:38:19;13.20;43.70
30288;DHT22;17103;48.316;11.558;2024-03-07T12:40:45;13.20;43.70
30288;DHT22;17103;48.316;11.558;2024-03-07T12:43:21;13.30;43.60
30288;DHT22;17103;48.316;11.558;2024-03-07T12:45:51;13.40;43.30
30288;DHT22;17103;48.316;11.558;2024-03-07T12:48:18;13.30;43.80
30288;DHT22;17103;48.316;11.558;2024-03-07T12:50:48;13.40;43.70
30288;DHT22;17103;48.316;11.558;2024-03-07T12:53:22;13.40;43.50
30288;DHT22;17103;48.316;11.558;2024-03-07T12:55:48;13.50;43.80
30288;DHT22;17103;48.316;11.558;2024-03-07T12:58:14;13.50;43.90
30288;DHT22;17103;48.316;11.558;2024-03-07T13:00:41;13.50;43.80
30288;DHT22;17103;48.316;11.558;2024-03-07T13:03:08;13.50;43.90
30288;DHT22;17103;48.316;11.558;2024-03-07T13:05:38;13.50;43.90
30288;DHT22;17103;48.316;11.558;2024-03-07T13:08:06;13.60;43.90
30288;DHT22;17103;48.316;11.558;2024-03-07T13:10:46;13.60;43.90
30288;DHT22;17103;48.316;11.558;2024-03-07T13:13:12;13.60;43.90
30288;DHT22;17103;48.316;11.558;2024-03-07T13:15:38;13.70;44.10
30288;DHT22;17103;48.316;11.558;2024-03-07T13:18:05;13.80;44.30
30288;DHT22;17103;48.316;11.558;2024-03-07T13:20:31;13.80;44.10
30288;DHT22;17103;48.316;11.558;2024-03-07T13:22:58;13.90;44.10
30288;DHT22;17103;48.316;11.558;2024-03-07T13:25:27;14.00;44.30
30288;DHT22;17103;48.316;11.558;2024-03-07T13:30:25;14.20;44.20
30288;DHT22;17103;48.316;11.558;2024-03-07T13:32:58;14.20;44.20
30288;DHT22;17103;48.316;11.558;2024-03-07T13:35:25;14.30;44.10
30288;DHT22;17103;48.316;11.558;2024-03-07T13:37:54;14.40;44.50
30288;DHT22;17103;48.316;11.558;2024-03-07T13:40:25;14.60;44.50
30288;DHT22;17103;48.316;11.558;2024-03-07T13:42:52;14.70;44.70
30288;DHT22;17103;48.316;11.558;2024-03-07T13:45:21;14.80;44.30
30288;DHT22;17103;48.316;11.558;2024-03-07T13:47:47;15.00;43.70
30288;DHT22;17103;48.316;11.558;2024-03-07T13:50:18;15.10;43.60
30288;DHT22;17103;48.316;11.558;2024-03-07T13:52:52;15.00;42.90
30288;DHT22;17103;48.316;11.558;2024-03-07T14:27:57;14.90;41.20
30288;DHT22;17103;48.316;11.558;2024-03-07T14:30:40;14.90;41.20
30288;DHT22;17103;48.316;11.558;2024-03-07T14:33:09;14.80;40.90
30288;DHT22;17103;48.316;11.558;2024-03-07T14:35:59;14.80;41.30
30288;DHT22;17103;48.316;11.558;2024-03-07T14:38:45;14.70;40.90
30288;DHT22;17103;48.316;11.558;2024-03-07T14:41:15;14.60;40.80
30288;DHT22;17103;48.316;11.558;2024-03-07T14:43:48;14.60;41.00
30288;DHT22;17103;48.316;11.558;2024-03-07T14:46:15;14.50;40.70
30288;DHT22;17103;48.316;11.558;2024-03-07T14:48:41;14.40;40.70
30288;DHT22;17103;48.316;11.558;2024-03-07T14:51:08;14.40;40.70
30288;DHT22;17103;48.316;11.558;2024-03-07T14:53:40;14.40;40.80
30288;DHT22;17103;48.316;11.558;2024-03-07T14:56:09;14.00;40.60
30288;DHT22;17103;48.316;11.558;2024-03-07T14:58:36;14.40;41.00
30288;DHT22;17103;48.316;11.558;2024-03-07T15:01:04;14.10;40.70
30288;DHT22;17103;48.316;11.558;2024-03-07T15:03:32;14.10;40.60
30288;DHT22;17103;48.316;11.558;2024-03-07T15:05:58;14.10;40.70
30288;DHT22;17103;48.316;11.558;2024-03-07T15:08:24;14.00;40.70
30288;DHT22;17103;48.316;11.558;2024-03-07T15:11:00;13.90;40.80
30288;DHT22;17103;48.316;11.558;2024-03-07T15:13:29;13.80;40.80
30288;DHT22;17103;48.316;11.558;2024-03-07T15:15:55;13.80;41.00
30288;DHT22;17103;48.316;11.558;2024-03-07T15:18:21;13.70;40.90
30288;DHT22;17103;48.316;11.558;2024-03-07T15:20:47;14.20;41.30
30288;DHT22;17103;48.316;11.558;2024-03-07T15:23:13;13.70;40.90
30288;DHT22;17103;48.316;11.558;2024-03-07T15:25:39;13.50;40.80
30288;DHT22;17103;48.316;11.558;2024-03-07T15:28:05;13.60;41.00
30288;DHT22;17103;48.316;11.558;2024-03-07T15:30:32;13.50;41.00
30288;DHT22;17103;48.316;11.558;2024-03-07T15:33:01;13.50;40.90
30288;DHT22;17103;48.316;11.558;2024-03-07T15:35:27;13.50;40.70
30288;DHT22;17103;48.316;11.558;2024-03-07T15:37:53;13.40;40.40
30288;DHT22;17103;48.316;11.558;2024-03-07T15:40:20;13.40;40.40
30288;DHT22;17103;48.316;11.558;2024-03-07T15:42:50;13.40;40.40
30288;DHT22;17103;48.316;11.558;2024-03-07T15:47:48;13.30;40.30
30288;DHT22;17103;48.316;11.558;2024-03-07T15:50:14;13.30;40.30
30288;DHT22;17103;48.316;11.558;2024-03-07T15:52:42;13.20;40.30
30288;DHT22;17103;48.316;11.558;2024-03-07T15:55:11;13.20;40.50
30288;DHT22;17103;48.316;11.558;2024-03-07T15:57:48;13.60;40.70
30288;DHT22;17103;48.316;11.558;2024-03-07T16:00:19;13.10;40.70
30288;DHT22;17103;48.316;11.558;2024-03-07T16:02:59;13.10;40.80
30288;DHT22;17103;48.316;11.558;2024-03-07T16:05:27;13.10;40.60
30288;DHT22;17103;48.316;11.558;2024-03-07T16:08:00;13.10;40.60
30288;DHT22;17103;48.316;11.558;2024-03-07T16:10:30;13.30;40.80